Time;durP1;ratioP1;P1;durP2;ratioP2;P2;SDS_P1;SDS_P2;PMS_P1;PMS_P2;Temp;Humidity;BMP_temperature;BMP_pressure;BME280_temperature;BME280_humidity;BME280_pressure;Samples;Min_cycle;Max_cycle;Signal;HPM_P1;HPM_P2
2021/10/25 00:02:09;;;;;;;5.55;2.42;;;5.10;99.90;;;;;;4966508;28;20028;-76
2021/10/25 00:04:34;;;;;;;9.15;3.50;;;5.10;99.90;;;;;;4966311;28;20043;-74
2021/10/25 00:07:01;;;;;;;9.45;2.97;;;5.10;99.90;;;;;;4964937;28;20031;-74
2021/10/25 00:09:27;;;;;;;5.30;2.30;;;5.10;99.90;;;;;;4965735;28;20055;-75
2021/10/25 00:11:52;;;;;;;7.43;2.95;;;5.10;99.90;;;;;;4964188;28;20533;-74
2021/10/25 00:14:18;;;;;;;2.78;1.63;;;5.10;99.90;;;;;;4966540;28;20031;-74
2021/10/25 00:16:44;;;;;;;8.80;2.85;;;5.10;99.90;;;;;;4966351;28;20031;-75
2021/10/25 00:19:11;;;;;;;5.03;1.88;;;5.00;99.90;;;;;;4964382;28;20385;-75
2021/10/25 00:21:37;;;;;;;3.00;1.70;;;5.10;99.90;;;;;;4965956;28;20030;-74
2021/10/25 00:24:04;;;;;;;11.93;2.38;;;5.10;99.90;;;;;;4965647;28;20118;-75
2021/10/25 00:26:30;;;;;;;4.93;2.42;;;5.10;99.90;;;;;;4966027;28;20035;-74
2021/10/25 00:28:57;;;;;;;6.32;2.42;;;5.10;99.90;;;;;;4965881;28;20066;-75
2021/10/25 00:31:23;;;;;;;9.45;2.83;;;5.00;99.90;;;;;;4965910;28;20051;-76
2021/10/25 00:33:49;;;;;;;7.80;2.60;;;5.00;99.90;;;;;;4965920;28;20054;-75
2021/10/25 00:36:15;;;;;;;4.95;2.78;;;5.00;99.90;;;;;;4965916;28;20032;-75
2021/10/25 00:38:41;;;;;;;4.22;2.15;;;5.00;99.90;;;;;;4965575;28;20027;-74
2021/10/25 00:41:09;;;;;;;4.25;2.58;;;4.90;99.90;;;;;;4966332;28;20103;-74
2021/10/25 00:43:35;;;;;;;5.15;2.70;;;4.90;99.90;;;;;;4965739;28;20023;-74
2021/10/25 00:46:01;;;;;;;5.15;3.10;;;4.90;99.90;;;;;;4967705;28;20038;-74
2021/10/25 00:48:27;;;;;;;4.75;2.58;;;4.80;99.90;;;;;;4969613;28;20463;-75
2021/10/25 00:50:53;;;;;;;4.60;2.47;;;4.80;99.90;;;;;;4969296;28;20413;-74
2021/10/25 00:53:19;;;;;;;5.53;3.05;;;4.80;99.90;;;;;;4969477;28;20050;-74
2021/10/25 00:55:45;;;;;;;4.53;2.60;;;4.80;99.90;;;;;;4967937;28;20027;-76
2021/10/25 00:58:12;;;;;;;14.05;3.28;;;4.80;99.90;;;;;;4969113;28;20026;-74
2021/10/25 01:00:38;;;;;;;7.43;2.55;;;4.70;99.90;;;;;;4969557;28;20095;-75
2021/10/25 01:03:04;;;;;;;6.05;2.53;;;4.70;99.90;;;;;;4968340;28;20027;-75
2021/10/25 01:05:31;;;;;;;5.28;2.60;;;4.70;99.90;;;;;;4969271;28;20114;-75
2021/10/25 01:08:00;;;;;;;4.18;2.00;;;4.70;99.90;;;;;;4969266;28;20066;-75
2021/10/25 01:10:26;;;;;;;7.07;2.60;;;4.70;99.90;;;;;;4968698;28;20051;-75
2021/10/25 01:12:53;;;;;;;4.55;2.25;;;4.70;99.90;;;;;;4968490;28;20046;-74
2021/10/25 01:15:19;;;;;;;4.72;2.53;;;4.60;99.90;;;;;;4968854;28;20027;-75
2021/10/25 01:17:45;;;;;;;4.32;2.50;;;4.70;99.90;;;;;;4968944;28;20032;-75
2021/10/25 01:20:11;;;;;;;2.72;1.90;;;4.70;99.90;;;;;;4968926;28;20051;-75
2021/10/25 01:22:37;;;;;;;5.20;2.65;;;4.70;99.90;;;;;;4969140;28;20034;-75
2021/10/25 01:25:05;;;;;;;5.38;2.42;;;4.70;99.90;;;;;;4969135;28;20120;-75
2021/10/25 01:27:30;;;;;;;4.10;2.65;;;4.70;99.90;;;;;;4967590;29;20035;-74
2021/10/25 01:29:57;;;;;;;2.95;2.10;;;4.70;99.90;;;;;;4968850;28;20063;-76
2021/10/25 01:32:22;;;;;;;4.18;2.08;;;4.70;99.90;;;;;;4968432;28;20063;-75
2021/10/25 01:34:48;;;;;;;6.60;2.60;;;4.60;99.90;;;;;;4967948;28;20027;-74
2021/10/25 01:37:14;;;;;;;10.50;2.42;;;4.70;99.90;;;;;;4967593;29;20484;-74
2021/10/25 01:39:40;;;;;;;5.70;2.60;;;4.70;99.90;;;;;;4967029;29;20053;-74
2021/10/25 01:42:07;;;;;;;6.45;3.00;;;4.80;99.90;;;;;;4968624;29;20035;-75
2021/10/25 01:44:34;;;;;;;4.90;2.38;;;4.80;99.90;;;;;;4968025;29;20042;-74
2021/10/25 01:47:00;;;;;;;6.03;2.35;;;4.80;99.90;;;;;;4965502;29;20501;-74
2021/10/25 01:49:26;;;;;;;4.72;2.13;;;4.80;99.90;;;;;;4965535;28;20457;-75
2021/10/25 01:51:52;;;;;;;8.88;3.55;;;4.70;99.90;;;;;;4966327;28;20028;-75
2021/10/25 01:54:18;;;;;;;7.80;2.55;;;4.70;99.90;;;;;;4966859;28;20044;-74
2021/10/25 01:56:44;;;;;;;6.70;2.53;;;4.70;99.90;;;;;;4965821;28;20042;-75
2021/10/25 01:59:10;;;;;;;6.43;2.25;;;4.70;99.90;;;;;;4967250;29;20376;-74
2021/10/25 02:01:36;;;;;;;5.18;2.50;;;4.60;99.90;;;;;;4967831;28;20042;-76
2021/10/25 02:04:05;;;;;;;6.28;3.25;;;4.60;99.90;;;;;;4967604;28;20043;-75
2021/10/25 02:06:32;;;;;;;6.95;2.33;;;4.60;99.90;;;;;;4968354;29;20036;-75
2021/10/25 02:08:58;;;;;;;19.92;2.70;;;4.60;99.90;;;;;;4967458;28;20051;-75
2021/10/25 02:11:23;;;;;;;4.85;2.35;;;4.60;99.90;;;;;;4967837;29;20372;-75
2021/10/25 02:13:49;;;;;;;5.03;2.30;;;4.50;99.90;;;;;;4967883;28;20043;-74
2021/10/25 02:16:16;;;;;;;8.88;2.67;;;4.50;99.90;;;;;;4968037;28;20070;-75
2021/10/25 02:18:41;;;;;;;5.80;2.35;;;4.40;99.90;;;;;;4967901;28;20056;-74
2021/10/25 02:21:07;;;;;;;9.95;3.13;;;4.40;99.90;;;;;;4966557;28;20027;-75
2021/10/25 02:23:33;;;;;;;7.38;2.60;;;4.30;99.90;;;;;;4966655;28;20063;-76
2021/10/25 02:25:59;;;;;;;5.18;2.53;;;4.30;99.90;;;;;;4966467;28;20444;-74
2021/10/25 02:28:25;;;;;;;3.63;2.00;;;4.30;99.90;;;;;;4967729;28;20031;-74
2021/10/25 02:30:52;;;;;;;5.80;2.38;;;4.20;99.90;;;;;;4967665;28;20023;-74
2021/10/25 02:33:19;;;;;;;4.47;2.40;;;4.20;99.90;;;;;;4967625;29;20089;-75
2021/10/25 02:35:45;;;;;;;4.47;2.20;;;4.20;99.90;;;;;;4967742;28;20027;-75
2021/10/25 02:38:11;;;;;;;5.57;2.30;;;4.20;99.90;;;;;;4965946;29;20396;-75
2021/10/25 02:40:37;;;;;;;4.78;2.83;;;4.20;99.90;;;;;;4966496;28;20027;-75
2021/10/25 02:43:02;;;;;;;5.07;2.35;;;4.20;99.90;;;;;;4966631;29;20082;-74
2021/10/25 02:45:28;;;;;;;3.78;2.28;;;4.10;99.90;;;;;;4967169;29;20042;-75
2021/10/25 02:47:54;;;;;;;9.65;2.42;;;4.10;99.90;;;;;;4967512;28;20031;-75
2021/10/25 02:50:20;;;;;;;6.30;2.53;;;4.10;99.90;;;;;;4967420;28;20058;-74
2021/10/25 02:52:45;;;;;;;4.20;2.25;;;4.10;99.90;;;;;;4966602;28;20039;-74
2021/10/25 02:55:11;;;;;;;3.45;2.30;;;4.10;99.90;;;;;;4966011;28;20039;-76
2021/10/25 02:57:38;;;;;;;4.05;2.08;;;4.10;99.90;;;;;;4967167;28;20035;-75
2021/10/25 03:00:07;;;;;;;7.00;2.63;;;4.10;99.90;;;;;;4966067;29;20054;-75
2021/10/25 03:02:33;;;;;;;10.15;2.58;;;4.10;99.90;;;;;;4966570;29;20031;-75
2021/10/25 03:04:59;;;;;;;4.25;2.30;;;4.10;99.90;;;;;;4965708;29;20053;-75
2021/10/25 03:07:25;;;;;;;4.38;2.50;;;4.10;99.90;;;;;;4966604;28;20085;-75
2021/10/25 03:09:50;;;;;;;7.45;3.13;;;4.00;99.90;;;;;;4966894;28;20063;-74
2021/10/25 03:12:17;;;;;;;5.03;2.38;;;4.00;99.90;;;;;;4965065;29;20027;-75
2021/10/25 03:14:44;;;;;;;4.75;2.45;;;4.10;99.90;;;;;;4966934;28;20369;-75
2021/10/25 03:17:09;;;;;;;5.35;2.97;;;4.00;99.90;;;;;;4966684;28;20020;-74
2021/10/25 03:19:37;;;;;;;8.07;2.35;;;4.00;99.90;;;;;;4966669;28;20046;-74
2021/10/25 03:22:04;;;;;;;3.53;2.13;;;4.00;99.90;;;;;;4966657;28;20026;-75
2021/10/25 03:24:35;;;;;;;7.03;2.55;;;4.00;99.90;;;;;;4966804;28;20022;-76
2021/10/25 03:27:01;;;;;;;8.05;2.92;;;4.00;99.90;;;;;;4966433;28;20032;-74
2021/10/25 03:29:27;;;;;;;5.70;2.72;;;4.00;99.90;;;;;;4966748;28;20050;-74
2021/10/25 03:31:53;;;;;;;6.13;2.38;;;4.00;99.90;;;;;;4966551;28;20476;-75
2021/10/25 03:34:19;;;;;;;5.97;2.25;;;4.00;99.90;;;;;;4966479;28;20079;-74
2021/10/25 03:36:47;;;;;;;9.48;2.70;;;3.90;99.90;;;;;;4965430;28;20121;-76
2021/10/25 03:39:14;;;;;;;11.15;3.05;;;3.90;99.90;;;;;;4965955;28;20050;-75
2021/10/25 03:41:44;;;;;;;4.05;2.25;;;3.90;99.90;;;;;;4966342;29;20389;-75
2021/10/25 03:44:15;;;;;;;7.03;3.03;;;3.90;99.90;;;;;;4965550;29;20078;-75
2021/10/25 03:49:16;;;;;;;4.30;2.28;;;3.90;99.90;;;;;;4966413;28;20102;-74
2021/10/25 03:51:44;;;;;;;7.72;2.67;;;3.80;99.90;;;;;;4967421;28;20019;-74
2021/10/25 04:26:49;;;;;;;7.70;2.87;;;3.70;99.90;;;;;;4966249;29;19922;-73
2021/10/25 04:29:18;;;;;;;6.45;3.30;;;3.70;99.90;;;;;;4965991;28;20286;-74
2021/10/25 04:31:44;;;;;;;8.25;3.03;;;3.70;99.90;;;;;;4980718;28;20417;-74
2021/10/25 04:34:10;;;;;;;6.47;2.35;;;3.80;99.90;;;;;;4965787;28;20046;-75
2021/10/25 04:36:36;;;;;;;6.07;2.78;;;3.80;99.90;;;;;;4965899;28;20488;-75
2021/10/25 04:39:09;;;;;;;4.78;2.58;;;3.70;99.90;;;;;;4965848;28;20071;-75
2021/10/25 04:41:35;;;;;;;4.15;2.58;;;3.70;99.90;;;;;;4964230;28;20455;-74
2021/10/25 04:44:01;;;;;;;6.55;2.35;;;3.70;99.90;;;;;;4965657;28;20027;-75
2021/10/25 04:46:26;;;;;;;13.82;3.55;;;3.70;99.90;;;;;;4965450;28;20035;-75
2021/10/25 04:48:52;;;;;;;5.38;2.72;;;3.70;99.90;;;;;;4980755;28;20038;-74
2021/10/25 04:51:17;;;;;;;4.38;2.13;;;3.70;99.90;;;;;;4965893;28;20058;-74
2021/10/25 04:53:43;;;;;;;5.30;2.30;;;3.70;99.90;;;;;;4964117;28;20039;-74
2021/10/25 04:56:09;;;;;;;5.47;2.83;;;3.70;99.90;;;;;;4965611;28;20038;-74
2021/10/25 04:58:35;;;;;;;10.52;3.38;;;3.70;99.90;;;;;;4965800;28;20054;-74
2021/10/25 05:01:00;;;;;;;6.70;2.67;;;3.60;99.90;;;;;;4964257;29;20104;-74
2021/10/25 05:03:27;;;;;;;4.53;2.63;;;3.60;99.90;;;;;;4965516;28;20031;-75
2021/10/25 05:05:52;;;;;;;8.52;2.53;;;3.60;99.90;;;;;;4965351;28;20038;-75
2021/10/25 05:08:18;;;;;;;6.03;2.72;;;3.50;99.90;;;;;;4964003;28;20090;-74
2021/10/25 05:10:43;;;;;;;4.90;2.35;;;3.50;99.90;;;;;;4963994;28;20055;-76
2021/10/25 05:13:09;;;;;;;5.32;3.03;;;3.50;99.90;;;;;;4964062;28;20083;-76
2021/10/25 05:15:34;;;;;;;8.75;2.92;;;3.50;99.90;;;;;;4964051;29;20380;-76
2021/10/25 05:18:01;;;;;;;8.52;3.08;;;3.40;99.90;;;;;;4964353;29;20043;-75
2021/10/25 05:20:26;;;;;;;6.53;2.53;;;3.40;99.90;;;;;;4965178;28;20447;-74
2021/10/25 05:22:52;;;;;;;3.72;2.30;;;3.30;99.90;;;;;;4953435;28;20032;-76
2021/10/25 05:25:18;;;;;;;10.35;3.45;;;3.40;99.90;;;;;;4963642;28;20355;-75
2021/10/25 05:27:43;;;;;;;5.75;2.90;;;3.40;99.90;;;;;;4944107;29;20027;-76
2021/10/25 05:30:10;;;;;;;11.52;3.80;;;3.30;99.90;;;;;;4947924;29;20038;-76
2021/10/25 05:32:36;;;;;;;5.20;2.78;;;3.40;99.90;;;;;;4961583;29;20067;-76
2021/10/25 05:35:02;;;;;;;5.80;2.60;;;3.40;99.90;;;;;;4967410;28;20035;-75
2021/10/25 05:37:28;;;;;;;7.03;2.80;;;3.30;99.90;;;;;;4952410;29;20084;-76
2021/10/25 05:39:56;;;;;;;5.32;2.83;;;3.30;99.90;;;;;;4966504;29;20078;-76
2021/10/25 05:42:22;;;;;;;6.25;2.78;;;3.30;99.90;;;;;;4966217;29;20034;-75
2021/10/25 05:44:47;;;;;;;7.05;2.92;;;3.30;99.90;;;;;;4961824;28;20028;-76
2021/10/25 05:47:13;;;;;;;5.28;2.55;;;3.30;99.90;;;;;;4948706;29;20031;-76
2021/10/25 05:49:39;;;;;;;6.13;3.10;;;3.30;99.90;;;;;;4949592;29;20028;-75
2021/10/25 05:52:05;;;;;;;8.27;3.28;;;3.30;99.90;;;;;;4948528;29;20059;-77
2021/10/25 05:54:34;;;;;;;9.85;3.20;;;3.30;99.90;;;;;;4949348;29;20042;-75
2021/10/25 05:57:01;;;;;;;4.13;2.53;;;3.30;99.90;;;;;;4968660;28;20492;-74
2021/10/25 05:59:27;;;;;;;16.52;3.28;;;3.30;99.90;;;;;;4958506;29;20031;-75
2021/10/25 06:01:58;;;;;;;7.70;3.33;;;3.30;99.90;;;;;;4949195;29;20051;-74
2021/10/25 06:04:26;;;;;;;11.75;4.00;;;3.30;99.90;;;;;;4953107;29;20802;-74
2021/10/25 06:06:52;;;;;;;13.43;4.13;;;3.30;99.90;;;;;;4964026;28;20027;-75
2021/10/25 06:09:18;;;;;;;8.15;3.85;;;3.20;99.90;;;;;;4957094;28;20044;-74
2021/10/25 06:11:44;;;;;;;10.68;3.88;;;3.20;99.90;;;;;;4946622;29;20035;-74
2021/10/25 06:14:12;;;;;;;14.70;4.25;;;3.20;99.90;;;;;;4957614;29;20035;-72
2021/10/25 06:16:40;;;;;;;11.35;4.13;;;3.30;99.90;;;;;;4953864;28;20030;-75
2021/10/25 06:19:08;;;;;;;6.32;3.55;;;3.30;99.90;;;;;;4948665;29;20440;-75
2021/10/25 06:21:35;;;;;;;10.82;3.83;;;3.30;99.90;;;;;;4950338;29;20106;-74
2021/10/25 06:24:00;;;;;;;11.90;3.60;;;3.30;99.90;;;;;;4955089;29;20035;-74
2021/10/25 06:26:33;;;;;;;7.53;2.92;;;3.40;99.90;;;;;;4959276;29;20035;-76
2021/10/25 06:28:59;;;;;;;10.77;3.65;;;3.40;99.90;;;;;;4968015;28;20539;-74
2021/10/25 06:31:27;;;;;;;9.95;4.30;;;3.40;99.90;;;;;;4966226;28;20042;-74
2021/10/25 06:33:53;;;;;;;9.07;4.20;;;3.40;99.90;;;;;;4967247;28;20035;-75
2021/10/25 06:36:21;;;;;;;8.93;3.90;;;3.50;99.90;;;;;;4965981;28;20428;-74
2021/10/25 06:41:15;;;;;;;11.60;3.78;;;3.70;99.90;;;;;;4967305;28;20489;-75
2021/10/25 06:43:42;;;;;;;12.13;3.63;;;3.80;99.90;;;;;;4963862;28;20031;-76
2021/10/25 06:46:07;;;;;;;11.00;3.42;;;3.80;99.90;;;;;;4960549;28;20034;-75
2021/10/25 06:48:34;;;;;;;7.68;3.38;;;3.90;99.90;;;;;;4947202;29;20099;-76
2021/10/25 06:51:00;;;;;;;8.05;3.30;;;3.90;99.90;;;;;;4947235;29;20036;-76
2021/10/25 06:53:25;;;;;;;8.48;4.10;;;4.00;99.90;;;;;;4946646;29;20130;-75
2021/10/25 06:55:51;;;;;;;8.25;3.33;;;4.00;99.90;;;;;;4959497;28;20031;-75
2021/10/25 06:58:21;;;;;;;7.13;3.67;;;4.10;99.90;;;;;;4956338;28;20063;-75
2021/10/25 07:00:46;;;;;;;6.15;3.42;;;4.10;99.90;;;;;;4964563;28;20035;-72
2021/10/25 07:03:12;;;;;;;6.25;3.38;;;4.30;99.90;;;;;;4967209;28;20031;-74
2021/10/25 07:05:38;;;;;;;8.07;4.00;;;4.40;99.90;;;;;;4966802;28;20027;-74
2021/10/25 07:08:06;;;;;;;6.68;3.45;;;4.40;99.90;;;;;;4967325;28;20404;-74
2021/10/25 07:10:33;;;;;;;14.00;3.28;;;4.50;99.90;;;;;;4958855;28;20139;-75
2021/10/25 07:12:59;;;;;;;10.30;3.42;;;4.50;99.90;;;;;;4965400;28;20079;-74
2021/10/25 07:15:26;;;;;;;8.50;3.70;;;4.60;99.90;;;;;;4948541;28;20044;-73
2021/10/25 07:17:58;;;;;;;8.45;4.13;;;4.70;99.90;;;;;;4945766;29;20028;-74
2021/10/25 08:01:56;;;;;;;;;;;7.30;99.90;;;;;;4966818;29;20125;-74
2021/10/25 08:04:43;;;;;;;10.30;4.25;;;7.70;99.90;;;;;;4966299;28;19913;-75
2021/10/25 08:09:57;;;;;;;5.28;3.30;;;8.20;99.90;;;;;;4958322;28;20130;-74
2021/10/25 08:12:26;;;;;;;8.20;4.63;;;8.10;99.90;;;;;;4950395;28;20036;-74
2021/10/25 08:14:57;;;;;;;19.45;4.25;;;8.00;99.90;;;;;;4946855;29;20035;-74
2021/10/25 08:17:26;;;;;;;8.48;4.35;;;7.80;99.90;;;;;;4952205;29;20067;-74
2021/10/25 08:19:52;;;;;;;7.47;4.03;;;7.60;99.90;;;;;;4963291;29;20035;-74
2021/10/25 08:22:19;;;;;;;9.13;4.88;;;7.40;99.90;;;;;;4965987;28;20027;-74
2021/10/25 08:24:52;;;;;;;10.50;4.57;;;7.30;99.90;;;;;;4958580;28;20035;-75
2021/10/25 08:27:20;;;;;;;12.27;4.35;;;7.20;99.90;;;;;;4968551;28;20036;-74
2021/10/25 08:29:47;;;;;;;10.13;4.00;;;7.20;99.90;;;;;;4952578;29;20024;-73
2021/10/25 08:33:01;;;;;;;9.37;3.87;;;7.20;99.90;;;;;;4954639;29;20053;-73
2021/10/25 08:40:36;;;;;;;8.00;4.40;;;7.20;99.90;;;;;;4949830;29;20258;-74
2021/10/25 08:43:02;;;;;;;16.05;5.80;;;7.20;99.90;;;;;;4952693;29;20027;-73
2021/10/25 08:45:35;;;;;;;11.98;4.57;;;7.30;99.90;;;;;;4951595;28;20054;-74
2021/10/25 08:48:05;;;;;;;11.73;4.88;;;7.30;99.90;;;;;;4958363;29;20041;-76
2021/10/25 08:50:36;;;;;;;9.35;4.47;;;7.40;99.90;;;;;;4957300;28;20087;-75
2021/10/25 08:53:04;;;;;;;11.88;5.38;;;7.40;99.90;;;;;;4950808;29;20042;-74
2021/10/25 08:55:30;;;;;;;13.52;5.90;;;7.50;99.90;;;;;;4954657;29;20027;-73
2021/10/25 08:57:55;;;;;;;12.80;4.53;;;7.60;99.90;;;;;;4965279;28;20035;-73
2021/10/25 09:00:44;;;;;;;9.05;4.97;;;7.70;99.90;;;;;;4965569;28;20088;-73
2021/10/25 09:03:11;;;;;;;19.70;5.45;;;7.80;99.90;;;;;;4962570;28;20040;-74
2021/10/25 09:05:40;;;;;;;11.35;4.65;;;8.00;99.90;;;;;;4964389;28;20027;-74
2021/10/25 09:08:07;;;;;;;21.65;5.50;;;8.10;99.90;;;;;;4963316;28;20030;-75
2021/10/25 09:10:46;;;;;;;11.48;5.20;;;8.20;99.90;;;;;;4948396;29;20577;-77
2021/10/25 09:13:20;;;;;;;10.50;5.22;;;8.20;99.90;;;;;;4958816;29;20039;-75
2021/10/25 09:15:57;;;;;;;15.65;5.15;;;8.30;99.90;;;;;;4950653;28;20366;-75
2021/10/25 09:18:24;;;;;;;14.30;5.43;;;8.30;99.90;;;;;;4955833;29;20046;-72
2021/10/25 09:20:58;;;;;;;22.25;6.45;;;8.40;99.90;;;;;;4963553;28;20027;-74
2021/10/25 09:23:26;;;;;;;14.93;6.57;;;8.40;99.90;;;;;;4949768;29;20067;-75
2021/10/25 09:25:55;;;;;;;12.13;6.07;;;8.50;99.90;;;;;;4948660;29;20465;-74
2021/10/25 09:28:25;;;;;;;12.45;5.93;;;8.50;99.90;;;;;;4948948;29;20024;-75
2021/10/25 09:31:17;;;;;;;13.43;6.25;;;8.60;99.90;;;;;;4967832;29;20046;-74
2021/10/25 09:33:58;;;;;;;16.40;6.15;;;8.70;99.90;;;;;;4967983;28;20039;-74
2021/10/25 09:36:48;;;;;;;13.35;6.10;;;8.80;99.90;;;;;;4969017;28;20197;-76
2021/10/25 09:39:39;;;;;;;17.38;5.75;;;8.90;99.90;;;;;;4968853;28;20038;-73
2021/10/25 09:50:48;;;;;;;13.77;6.25;;;9.30;99.90;;;;;;4943186;29;20036;-72
2021/10/25 09:53:14;;;;;;;12.77;5.65;;;9.30;99.90;;;;;;4971021;28;20039;-74
2021/10/25 09:55:43;;;;;;;13.77;6.57;;;9.40;99.90;;;;;;4972131;28;20038;-73
2021/10/25 09:58:17;;;;;;;10.18;5.13;;;9.40;99.90;;;;;;4968474;28;20075;-74
2021/10/25 10:00:43;;;;;;;11.82;5.47;;;9.40;99.90;;;;;;4968760;28;20023;-74
2021/10/25 10:03:09;;;;;;;13.95;6.35;;;9.50;99.90;;;;;;4968736;28;20468;-74
2021/10/25 10:05:36;;;;;;;8.32;4.88;;;9.60;99.90;;;;;;4968315;28;20095;-73
2021/10/25 10:08:05;;;;;;;8.88;5.28;;;9.60;99.90;;;;;;4968640;28;20027;-73
2021/10/25 10:10:31;;;;;;;13.77;6.50;;;9.70;99.90;;;;;;4967547;28;20070;-73
2021/10/25 10:12:57;;;;;;;11.10;4.97;;;9.70;99.90;;;;;;4967928;28;20055;-73
2021/10/25 10:15:25;;;;;;;17.23;5.85;;;9.80;99.90;;;;;;4968437;28;20035;-73
2021/10/25 10:17:59;;;;;;;12.75;5.15;;;9.90;99.90;;;;;;4966051;28;20034;-73
2021/10/25 10:20:32;;;;;;;26.13;6.45;;;10.00;99.90;;;;;;4968808;28;20050;-74
2021/10/25 10:23:05;;;;;;;20.48;5.30;;;10.00;99.90;;;;;;4968538;28;20077;-75
2021/10/25 10:25:34;;;;;;;10.10;5.13;;;10.10;99.90;;;;;;4968425;28;20429;-73
2021/10/25 10:28:10;;;;;;;8.98;5.03;;;10.20;99.90;;;;;;4967237;28;20028;-75
2021/10/25 10:31:02;;;;;;;12.52;5.55;;;10.30;99.90;;;;;;4968180;28;20055;-72
2021/10/25 10:33:41;;;;;;;15.27;4.65;;;10.30;99.90;;;;;;4967355;29;21163;-74
2021/10/25 10:36:34;;;;;;;12.63;5.72;;;10.30;99.90;;;;;;4966863;28;20027;-74
2021/10/25 10:39:11;;;;;;;10.65;4.28;;;10.30;99.90;;;;;;4967329;28;20466;-74
2021/10/25 10:41:54;;;;;;;12.30;5.40;;;10.30;99.90;;;;;;4968006;29;20035;-73
2021/10/25 10:44:22;;;;;;;9.18;3.88;;;10.30;99.90;;;;;;4967178;28;20078;-73
2021/10/25 10:46:57;;;;;;;9.25;4.30;;;10.40;99.90;;;;;;4967516;28;20023;-73
2021/10/25 10:49:33;;;;;;;13.23;5.38;;;10.40;99.90;;;;;;4967779;28;20023;-76
2021/10/25 10:52:25;;;;;;;10.35;4.45;;;10.40;99.90;;;;;;4967957;28;20038;-75
2021/10/25 10:55:06;;;;;;;8.48;4.80;;;10.40;99.90;;;;;;4965777;28;20058;-72
2021/10/25 11:00:23;;;;;;;13.80;4.85;;;10.50;99.90;;;;;;4967267;28;20090;-73
2021/10/25 11:02:55;;;;;;;10.00;4.70;;;10.60;99.90;;;;;;4966941;28;20024;-74
2021/10/25 11:05:39;;;;;;;17.65;5.40;;;10.60;99.90;;;;;;4964067;28;20027;-73
2021/10/25 11:08:16;;;;;;;7.55;3.95;;;10.60;99.90;;;;;;4954673;29;20103;-73
2021/10/25 11:10:44;;;;;;;12.13;5.18;;;10.60;99.90;;;;;;4948622;29;20062;-73
2021/10/25 11:13:21;;;;;;;7.68;4.07;;;10.60;99.90;;;;;;4965263;28;20403;-74
2021/10/25 11:16:18;;;;;;;10.23;5.18;;;10.60;99.90;;;;;;4964257;28;20027;-74
2021/10/25 11:18:51;;;;;;;7.25;3.92;;;10.60;99.90;;;;;;4965881;28;20067;-74
2021/10/25 11:21:30;;;;;;;15.13;5.10;;;10.60;99.90;;;;;;4964122;28;20031;-72
2021/10/25 11:24:02;;;;;;;16.73;4.80;;;10.60;99.90;;;;;;4961644;29;20028;-76
2021/10/25 11:26:46;;;;;;;9.80;5.03;;;10.60;99.90;;;;;;4946970;29;20024;-72
2021/10/25 11:29:16;;;;;;;9.00;4.90;;;10.70;99.90;;;;;;4945234;29;20024;-74
2021/10/25 11:31:51;;;;;;;7.40;4.38;;;10.70;99.90;;;;;;4961937;29;20067;-73
2021/10/25 11:34:21;;;;;;;8.63;3.88;;;10.70;99.90;;;;;;4945947;29;20142;-74
2021/10/25 11:37:01;;;;;;;9.90;4.07;;;10.70;99.90;;;;;;4946538;29;20020;-73
2021/10/25 11:40:01;;;;;;;9.48;5.00;;;10.70;99.90;;;;;;4947081;29;20035;-74
2021/10/25 11:42:32;;;;;;;15.43;5.18;;;10.80;99.90;;;;;;4947498;29;20087;-75
2021/10/25 11:45:05;;;;;;;10.88;4.88;;;10.80;99.90;;;;;;4946253;29;20034;-73
2021/10/25 11:47:33;;;;;;;11.35;5.88;;;10.90;99.90;;;;;;4947894;29;20071;-74
2021/10/25 11:50:00;;;;;;;8.68;4.82;;;10.90;99.90;;;;;;4947155;29;20027;-74
2021/10/25 11:52:32;;;;;;;11.07;5.25;;;11.00;99.90;;;;;;4947238;29;20031;-74
2021/10/25 11:54:58;;;;;;;13.27;5.30;;;11.10;99.90;;;;;;4962246;28;20799;-74
2021/10/25 11:57:24;;;;;;;13.77;4.88;;;11.20;99.90;;;;;;4947081;29;20063;-73
2021/10/25 12:00:02;;;;;;;11.88;5.70;;;11.30;99.90;;;;;;4961856;29;20028;-75
2021/10/25 12:02:29;;;;;;;6.82;3.90;;;11.40;99.90;;;;;;4947349;29;20038;-81
2021/10/25 12:04:55;;;;;;;11.23;4.88;;;11.40;99.90;;;;;;4961847;29;20036;-76
2021/10/25 12:07:22;;;;;;;18.13;5.07;;;11.40;99.90;;;;;;4947033;29;20034;-73
2021/10/25 12:09:58;;;;;;;12.48;4.25;;;11.40;99.90;;;;;;4945743;29;20111;-74
2021/10/25 12:12:24;;;;;;;10.65;4.18;;;11.40;99.90;;;;;;4946152;29;20042;-73
2021/10/25 12:14:55;;;;;;;9.52;4.28;;;11.40;99.90;;;;;;4946834;29;20405;-73
2021/10/25 12:17:28;;;;;;;12.20;4.60;;;11.30;99.90;;;;;;4945357;29;20099;-73
2021/10/25 12:19:53;;;;;;;15.13;4.38;;;11.30;99.90;;;;;;4947216;29;20027;-73
2021/10/25 12:22:20;;;;;;;7.72;3.65;;;11.30;99.90;;;;;;4951508;28;20034;-76
2021/10/25 12:24:48;;;;;;;9.75;4.10;;;11.30;99.90;;;;;;4981255;28;20035;-72
2021/10/25 12:27:21;;;;;;;6.57;3.78;;;11.30;99.90;;;;;;4985065;28;20090;-75
2021/10/25 12:30:16;;;;;;;7.68;3.70;;;11.30;99.90;;;;;;4984901;28;20042;-75
2021/10/25 12:32:55;;;;;;;19.50;4.80;;;11.30;99.90;;;;;;4985054;28;20035;-76
2021/10/25 12:35:43;;;;;;;8.07;4.72;;;11.30;99.90;;;;;;4984979;28;20119;-75
2021/10/25 12:38:13;;;;;;;9.15;4.82;;;11.30;99.90;;;;;;4984169;28;20038;-72
2021/10/25 12:40:46;;;;;;;12.38;4.35;;;11.40;99.90;;;;;;4986445;28;20034;-77
2021/10/25 12:43:15;;;;;;;6.93;3.63;;;11.30;99.90;;;;;;4987126;28;20476;-75
2021/10/25 12:45:44;;;;;;;8.80;4.43;;;11.40;99.90;;;;;;4988837;28;20022;-77
2021/10/25 12:48:13;;;;;;;12.60;4.65;;;11.40;99.90;;;;;;4989235;28;20069;-76
2021/10/25 12:50:44;;;;;;;14.23;4.95;;;11.30;99.90;;;;;;4989174;28;20043;-75
2021/10/25 12:53:16;;;;;;;22.58;4.70;;;11.30;99.90;;;;;;4988492;28;20041;-76
2021/10/25 12:55:52;;;;;;;9.35;4.72;;;11.30;99.90;;;;;;4988594;28;20030;-75
2021/10/25 12:58:22;;;;;;;10.65;4.00;;;11.30;99.90;;;;;;4986118;28;20468;-75
2021/10/25 13:00:48;;;;;;;12.52;4.13;;;11.30;99.90;;;;;;4967237;28;20027;-75
2021/10/25 13:03:14;;;;;;;7.20;3.45;;;11.20;99.90;;;;;;4968289;28;20031;-76
2021/10/25 13:05:46;;;;;;;9.50;4.97;;;11.30;99.90;;;;;;4968265;28;20031;-75
2021/10/25 13:08:14;;;;;;;19.25;5.68;;;11.40;99.90;;;;;;4967136;28;20126;-75
2021/10/25 13:10:44;;;;;;;12.82;4.20;;;11.40;99.90;;;;;;4969544;28;20077;-74
2021/10/25 13:13:21;;;;;;;9.30;4.72;;;11.50;99.90;;;;;;4963194;28;20071;-74
2021/10/25 13:15:47;;;;;;;7.07;4.13;;;11.50;99.90;;;;;;4960619;28;20068;-75
2021/10/25 13:18:13;;;;;;;8.85;4.30;;;11.50;99.90;;;;;;4956664;29;20567;-74
2021/10/25 13:20:42;;;;;;;7.72;3.97;;;11.50;99.90;;;;;;4965400;29;20024;-75
2021/10/25 13:23:10;;;;;;;7.13;4.13;;;11.50;99.90;;;;;;4961371;28;20036;-75
2021/10/25 13:25:38;;;;;;;30.10;12.80;;;11.60;99.90;;;;;;4964139;28;20020;-76
2021/10/25 13:28:06;;;;;;;12.63;6.78;;;11.60;99.90;;;;;;4964667;29;20031;-76
2021/10/25 13:30:33;;;;;;;10.48;3.85;;;11.60;99.90;;;;;;4964426;29;20047;-78
2021/10/25 13:32:59;;;;;;;13.65;4.60;;;11.70;99.90;;;;;;4963708;29;20041;-75
2021/10/25 13:35:25;;;;;;;14.57;4.50;;;11.70;99.90;;;;;;4966890;29;20063;-75
2021/10/25 13:37:52;;;;;;;11.25;4.03;;;11.70;99.90;;;;;;4950075;29;20028;-76
2021/10/25 13:40:21;;;;;;;14.43;4.53;;;11.80;99.90;;;;;;4956748;29;20024;-73
2021/10/25 13:42:46;;;;;;;6.15;3.83;;;11.80;99.90;;;;;;4965958;28;20133;-74
2021/10/25 13:45:12;;;;;;;12.68;4.10;;;11.80;99.90;;;;;;4961132;28;20032;-74
2021/10/25 13:47:39;;;;;;;7.05;3.60;;;11.80;99.90;;;;;;4966478;29;20034;-75
2021/10/25 13:50:06;;;;;;;8.05;3.58;;;11.80;99.90;;;;;;4968765;28;20037;-74
2021/10/25 13:52:32;;;;;;;6.05;3.42;;;11.70;99.90;;;;;;4967567;28;20373;-76
2021/10/25 13:54:58;;;;;;;9.27;4.25;;;11.70;99.90;;;;;;4960980;28;20047;-75
2021/10/25 13:57:26;;;;;;;7.20;4.13;;;11.70;99.90;;;;;;4947643;29;20142;-75
2021/10/25 13:59:53;;;;;;;7.97;4.25;;;11.70;99.90;;;;;;4955006;29;20074;-75
2021/10/25 14:02:26;;;;;;;5.75;3.40;;;11.70;99.90;;;;;;4962500;29;20055;-75
2021/10/25 14:04:54;;;;;;;7.55;3.30;;;11.70;99.90;;;;;;4967773;28;20019;-73
2021/10/25 14:07:23;;;;;;;10.10;3.90;;;11.80;99.90;;;;;;4966248;29;20055;-75
2021/10/25 14:10:00;;;;;;;5.78;3.38;;;11.80;99.90;;;;;;4957126;28;20051;-73
2021/10/25 14:12:28;;;;;;;7.82;3.50;;;11.80;99.90;;;;;;4949490;28;20047;-74
2021/10/25 14:15:04;;;;;;;5.65;3.22;;;11.80;99.90;;;;;;4971215;28;20065;-73
2021/10/25 14:17:30;;;;;;;5.80;3.17;;;11.90;99.90;;;;;;4964857;28;20086;-74
2021/10/25 14:19:55;;;;;;;14.68;4.03;;;11.90;99.90;;;;;;4965668;29;20035;-74
2021/10/25 14:22:21;;;;;;;8.77;3.08;;;11.90;99.90;;;;;;4967963;28;20543;-75
2021/10/25 14:24:47;;;;;;;16.90;4.15;;;12.00;99.90;;;;;;4963372;28;20023;-75
2021/10/25 14:27:15;;;;;;;7.07;3.55;;;12.00;99.90;;;;;;4965453;28;20031;-71
2021/10/25 14:29:41;;;;;;;5.90;3.70;;;12.00;99.90;;;;;;4967151;28;20023;-75
2021/10/25 14:32:09;;;;;;;6.18;3.30;;;12.00;99.90;;;;;;4948786;29;20035;-75
2021/10/25 14:34:35;;;;;;;15.40;4.30;;;12.00;99.90;;;;;;4947758;29;20054;-76
2021/10/25 14:37:07;;;;;;;14.00;4.13;;;12.00;99.90;;;;;;4947827;29;20476;-75
2021/10/25 14:39:41;;;;;;;6.68;3.45;;;12.00;99.90;;;;;;4957320;29;20774;-74